createdAt,value
2018-06-28T07:18:20.603Z,33
2018-06-28T07:23:33.051Z,33
2018-06-28T07:28:44.730Z,33
2018-06-28T07:33:56.772Z,39
2018-06-28T07:39:08.868Z,39
2018-06-28T07:44:20.917Z,39
2018-06-28T07:49:32.981Z,45
2018-06-28T07:54:45.236Z,45
2018-06-28T07:59:57.229Z,45
2018-06-28T08:05:09.341Z,50
2018-06-28T08:10:21.293Z,50
2018-06-28T08:15:33.382Z,56
2018-06-28T08:20:45.648Z,56
2018-06-28T08:25:57.508Z,61
2018-06-28T08:31:09.577Z,67
2018-06-28T08:36:21.657Z,73
2018-06-28T08:41:33.744Z,67
2018-06-28T08:46:45.809Z,73
2018-06-28T08:51:57.858Z,73
2018-06-28T08:57:10.057Z,73
2018-06-28T09:02:22.060Z,45
2018-06-28T09:07:27.764Z,56
2018-06-28T09:21:41.640Z,0
2018-06-28T09:54:08.844Z,1827975
2018-06-28T09:59:18.800Z,1893240
2018-06-28T10:04:28.572Z,1632052
2018-06-28T10:09:38.403Z,1436205
2018-06-28T10:14:48.269Z,1305642
2018-06-28T10:19:58.060Z,1305628
2018-06-28T10:25:07.936Z,1305635
2018-06-28T10:30:17.805Z,1436202
2018-06-28T10:35:27.562Z,1370925
2018-06-28T10:40:37.598Z,1370914
2018-06-28T10:45:47.219Z,1501489
2018-06-28T10:50:57.060Z,1566789
2018-06-28T10:56:07.037Z,1501472
2018-06-28T11:01:16.716Z,1436203
2018-06-28T11:06:26.559Z,1370907
2018-06-28T11:11:36.383Z,1501490
2018-06-28T11:16:46.264Z,1632086
2018-06-28T11:21:56.206Z,1436193
2018-06-28T11:27:05.892Z,1370909
2018-06-28T11:32:15.828Z,1240355
2018-06-28T11:37:28.802Z,1240366
2018-06-28T11:42:35.437Z,1240350
2018-06-28T11:47:45.333Z,1305629
2018-06-28T11:52:55.076Z,1240358
2018-06-28T11:58:04.940Z,1240351
2018-06-28T12:03:14.827Z,1175060
2018-06-28T12:08:24.641Z,1109798
2018-06-28T12:13:34.500Z,1175076
2018-06-28T12:18:44.381Z,1109784
2018-06-28T12:23:54.257Z,1175078
2018-06-28T12:29:04.231Z,1109786
2018-06-28T12:34:14.126Z,1109796
2018-06-28T12:39:23.896Z,1044497
2018-06-28T12:44:33.791Z,1175068
2018-06-28T12:49:43.969Z,1109787
2018-06-28T12:54:53.621Z,1175061
2018-06-28T13:00:03.488Z,1240345
2018-06-28T13:05:13.528Z,1109781
2018-06-28T13:10:23.161Z,1240359
2018-06-28T13:15:33.198Z,1240344
2018-06-28T13:20:42.928Z,1305631
2018-06-28T13:25:52.940Z,1305672
2018-06-28T13:31:02.715Z,1240363
2018-06-28T13:36:12.570Z,1305671
2018-06-28T13:41:22.486Z,1240358
2018-06-28T13:46:32.769Z,1240365
2018-06-28T13:51:42.164Z,1436214
2018-06-28T13:56:51.981Z,1109797
2018-06-28T14:02:01.891Z,1175069
